aviador You're here:

OMSJ Decoded Metar

SHARJAH in UNITED ARAB EMIRATES
Report Time2018-01-22 01:00:00
UTC Time2018-01-22 01:53:30
Flight Rules vfr VFR
Wind140° at 04 kt
W.Decomp.*RWY 12: 3.8 kt HW 1.3 kt RCW
W.Rank140° ranks 5
Current wind is below 140° avg. (4.5)
Visibility8000 m
Phenomena:N/A
Clouds:N/A
Expected CloudBase > 2,000 ft AGL from Temp-Dew spread
CeilingNone
Temp14°C (ISA -1)
Dew Point09°C (72% RH)
AAT12.4°C
QNH1017 hPa
Density Alt36 ft
Elevation108 ft
Report Wrong Elevation
Raw Report
METAR OMSJ 220100Z 14004KT 8000 NSC 14/09 Q1017=

Extra information for OMSJ:More info

Metar Taf Metar & Taf Last 4 Metars F.Rules Stats Wind Profile Meteogram Temp Stats Airport Information Weather charts Add Link Nearby VenuesMetar ALERT Operation Metar Decoded Social comments